createdAt,value
2023-03-22T00:00:00.842Z,11.60
2023-03-22T00:02:27.913Z,10.40
2023-03-22T00:04:55.098Z,9.60
2023-03-22T00:07:22.128Z,9.90
2023-03-22T00:09:49.114Z,9.82
2023-03-22T00:12:16.496Z,8.82
2023-03-22T00:14:43.450Z,9.40
2023-03-22T00:17:10.578Z,9.95
2023-03-22T00:19:37.697Z,10.05
2023-03-22T00:22:06.439Z,10.15
2023-03-22T00:24:33.574Z,9.82
2023-03-22T00:27:01.225Z,10.20
2023-03-22T00:29:28.448Z,10.13
2023-03-22T00:31:56.468Z,10.95
2023-03-22T00:34:23.745Z,11.55
2023-03-22T00:36:52.200Z,10.57
2023-03-22T00:39:20.019Z,11.68
2023-03-22T00:41:47.076Z,11.93
2023-03-22T00:44:14.140Z,11.52
2023-03-22T00:46:41.161Z,12.73
2023-03-22T00:49:08.226Z,12.40
2023-03-22T00:51:35.856Z,11.63
2023-03-22T00:54:02.950Z,12.48
2023-03-22T00:56:30.113Z,13.57
2023-03-22T00:59:04.714Z,11.23
2023-03-22T01:01:32.428Z,10.65
2023-03-22T01:04:00.067Z,11.40
2023-03-22T01:06:27.147Z,11.25
2023-03-22T01:08:55.412Z,10.80
2023-03-22T01:11:22.581Z,9.77
2023-03-22T01:13:50.161Z,8.18
2023-03-22T01:16:18.011Z,10.35
2023-03-22T01:18:45.406Z,8.95
2023-03-22T01:21:13.186Z,8.25
2023-03-22T01:23:40.790Z,7.93
2023-03-22T01:26:08.029Z,7.93
2023-03-22T01:28:35.036Z,8.63
2023-03-22T01:31:03.176Z,9.23
2023-03-22T01:33:30.965Z,9.25
2023-03-22T01:35:58.495Z,9.13
2023-03-22T01:38:26.399Z,9.38
2023-03-22T01:40:57.646Z,8.77
2023-03-22T01:43:25.862Z,8.55
2023-03-22T01:45:54.257Z,7.93
2023-03-22T01:48:37.890Z,9.15
2023-03-22T01:51:09.110Z,9.00
2023-03-22T01:53:58.434Z,9.32
2023-03-22T01:56:28.787Z,10.05
2023-03-22T01:58:56.810Z,8.75
2023-03-22T02:01:33.129Z,9.80
2023-03-22T02:04:10.249Z,9.38
2023-03-22T02:06:38.507Z,8.60
2023-03-22T02:09:17.661Z,8.68
2023-03-22T02:11:52.655Z,9.07
2023-03-22T02:14:43.859Z,9.90
2023-03-22T02:17:27.879Z,10.00
2023-03-22T02:20:38.972Z,10.43
2023-03-22T02:23:21.045Z,10.80
2023-03-22T02:26:06.435Z,9.57
2023-03-22T02:28:39.369Z,10.23
2023-03-22T02:31:15.706Z,9.02
2023-03-22T02:33:59.939Z,9.48
2023-03-22T02:36:33.173Z,9.15
2023-03-22T02:39:23.435Z,9.13
2023-03-22T02:41:59.668Z,8.82
2023-03-22T02:44:35.753Z,8.43
2023-03-22T02:47:08.390Z,6.95
2023-03-22T02:49:40.582Z,7.30
2023-03-22T02:52:17.582Z,7.15
2023-03-22T02:55:02.259Z,5.63
2023-03-22T02:57:38.160Z,6.85
2023-03-22T03:00:12.649Z,5.75
2023-03-22T03:02:44.305Z,6.28
2023-03-22T03:05:13.545Z,6.95
2023-03-22T03:07:44.824Z,7.05
2023-03-22T03:10:15.617Z,8.43
2023-03-22T03:12:43.458Z,6.82
2023-03-22T03:15:17.149Z,7.68
2023-03-22T03:17:57.452Z,7.60
2023-03-22T03:20:34.663Z,7.80
2023-03-22T03:25:47.555Z,7.88
2023-03-22T03:28:23.202Z,9.15
2023-03-22T03:31:10.342Z,8.88
2023-03-22T03:33:53.349Z,9.73
2023-03-22T03:36:22.010Z,9.50
2023-03-22T03:38:52.719Z,8.30
2023-03-22T03:41:27.407Z,9.63
2023-03-22T03:43:56.435Z,9.27
2023-03-22T03:46:23.456Z,9.40
2023-03-22T03:48:52.948Z,9.02
2023-03-22T03:51:20.036Z,7.78
2023-03-22T03:53:47.392Z,9.65
2023-03-22T03:56:14.677Z,8.90
2023-03-22T03:58:45.390Z,10.00
2023-03-22T04:01:12.478Z,9.68
2023-03-22T04:03:50.892Z,10.13
2023-03-22T04:06:40.883Z,10.95
2023-03-22T04:09:16.420Z,12.32
2023-03-22T04:11:47.472Z,13.95
2023-03-22T04:14:15.563Z,11.95
2023-03-22T04:16:42.623Z,11.27
2023-03-22T04:19:14.227Z,10.40
2023-03-22T04:21:41.445Z,10.07
2023-03-22T04:24:10.096Z,10.43
2023-03-22T04:26:41.011Z,11.00
2023-03-22T04:29:19.450Z,10.65
2023-03-22T04:31:50.669Z,11.05
2023-03-22T04:34:23.559Z,12.18
2023-03-22T04:37:14.896Z,12.70
2023-03-22T04:39:55.559Z,12.80
2023-03-22T04:42:35.737Z,11.95
2023-03-22T04:45:16.351Z,13.68
2023-03-22T04:47:48.395Z,13.73
2023-03-22T04:50:16.000Z,12.93
2023-03-22T04:52:50.357Z,11.85
2023-03-22T04:55:17.862Z,12.55
2023-03-22T04:57:46.007Z,11.80
2023-03-22T05:00:13.768Z,11.13
2023-03-22T05:02:41.660Z,13.13
2023-03-22T05:05:16.710Z,11.75
2023-03-22T05:07:45.334Z,13.38
2023-03-22T05:10:12.429Z,13.57
2023-03-22T05:12:40.712Z,12.88
2023-03-22T05:15:26.671Z,12.38
2023-03-22T05:17:55.903Z,11.32
2023-03-22T05:20:23.758Z,9.93
2023-03-22T05:23:06.653Z,11.85
2023-03-22T05:25:34.345Z,11.77
2023-03-22T05:28:02.212Z,10.15
2023-03-22T05:30:43.121Z,10.63
2023-03-22T05:33:30.388Z,11.90
2023-03-22T05:36:01.488Z,11.05
2023-03-22T05:38:32.498Z,10.00
2023-03-22T05:41:01.334Z,11.80
2023-03-22T05:43:31.205Z,12.30
2023-03-22T05:45:58.302Z,11.75
2023-03-22T05:48:39.091Z,11.07
2023-03-22T05:51:08.140Z,13.02
2023-03-22T05:53:36.054Z,14.27
2023-03-22T05:56:16.318Z,14.95
2023-03-22T05:58:46.293Z,15.60
2023-03-22T06:01:16.717Z,14.68
2023-03-22T06:03:48.514Z,18.05
2023-03-22T06:06:51.643Z,15.35
2023-03-22T06:09:36.574Z,14.02
2023-03-22T06:12:07.511Z,14.77
2023-03-22T06:14:34.837Z,16.30
2023-03-22T06:17:21.054Z,17.08
2023-03-22T06:19:50.051Z,17.40
2023-03-22T06:22:19.016Z,19.42
2023-03-22T06:24:47.971Z,14.88
2023-03-22T06:27:19.988Z,17.90
2023-03-22T06:29:51.163Z,14.02
2023-03-22T06:32:26.911Z,15.93
2023-03-22T06:34:55.665Z,17.20
2023-03-22T06:37:24.713Z,16.27
2023-03-22T06:39:52.432Z,17.33
2023-03-22T06:42:22.007Z,18.08
2023-03-22T06:44:59.549Z,18.38
2023-03-22T06:47:29.970Z,18.27
2023-03-22T06:50:16.059Z,18.15
2023-03-22T06:53:15.489Z,17.65
2023-03-22T06:55:43.734Z,16.10
2023-03-22T06:58:14.683Z,14.10
2023-03-22T07:00:42.041Z,13.73
2023-03-22T07:03:09.347Z,13.05
2023-03-22T07:05:44.201Z,14.07
2023-03-22T07:08:12.363Z,14.23
2023-03-22T07:10:50.510Z,15.07
2023-03-22T07:13:20.464Z,16.33
2023-03-22T07:15:49.023Z,16.45
2023-03-22T07:18:36.961Z,16.08
2023-03-22T07:21:04.844Z,15.95
2023-03-22T07:23:33.054Z,16.73
2023-03-22T07:26:06.489Z,17.00
2023-03-22T07:28:35.997Z,18.05
2023-03-22T07:31:12.715Z,39.90
2023-03-22T07:33:59.990Z,39.05
2023-03-22T07:36:29.788Z,38.28
2023-03-22T07:38:57.119Z,26.83
2023-03-22T07:41:34.632Z,20.75
2023-03-22T07:44:31.120Z,22.20
2023-03-22T07:47:27.171Z,18.85
2023-03-22T07:50:15.162Z,13.07
2023-03-22T07:52:45.754Z,11.02
2023-03-22T07:55:14.764Z,12.38
2023-03-22T07:57:42.352Z,9.73
2023-03-22T08:00:10.801Z,9.40
2023-03-22T08:02:47.729Z,8.15
2023-03-22T08:05:30.643Z,8.00
2023-03-22T08:08:01.545Z,8.07
2023-03-22T08:10:28.548Z,8.00
2023-03-22T08:12:55.672Z,7.55
2023-03-22T08:15:25.842Z,7.43
2023-03-22T08:17:53.874Z,7.30
2023-03-22T08:20:30.025Z,7.25
2023-03-22T08:23:01.529Z,7.70
2023-03-22T08:25:52.224Z,8.57
2023-03-22T08:28:19.695Z,10.95
2023-03-22T08:30:48.672Z,10.25
2023-03-22T08:33:16.405Z,16.50
2023-03-22T08:35:45.501Z,17.40
2023-03-22T08:38:12.798Z,17.35
2023-03-22T08:40:47.212Z,18.65
2023-03-22T08:43:17.545Z,18.20
2023-03-22T08:45:45.072Z,13.10
2023-03-22T08:48:16.246Z,15.20
2023-03-22T08:51:02.598Z,11.65
2023-03-22T08:53:40.615Z,14.35
2023-03-22T08:56:27.547Z,12.73
2023-03-22T08:59:10.088Z,14.63
2023-03-22T09:02:06.669Z,14.45
2023-03-22T09:04:33.978Z,15.95
2023-03-22T09:07:02.316Z,16.00
2023-03-22T09:09:29.420Z,13.82
2023-03-22T09:11:58.369Z,13.25
2023-03-22T09:14:25.877Z,12.95
2023-03-22T09:16:54.034Z,12.68
2023-03-22T09:19:21.389Z,11.40
2023-03-22T09:21:48.637Z,10.63
2023-03-22T09:24:20.972Z,10.93
2023-03-22T09:26:53.048Z,10.38
2023-03-22T09:29:20.758Z,10.77
2023-03-22T09:31:49.150Z,10.85
2023-03-22T09:34:23.514Z,10.50
2023-03-22T09:36:52.977Z,10.40
2023-03-22T09:39:24.021Z,9.55
2023-03-22T09:42:02.670Z,9.43
2023-03-22T09:44:29.691Z,8.93
2023-03-22T09:47:00.221Z,9.18
2023-03-22T09:49:50.458Z,8.23
2023-03-22T09:52:19.980Z,8.15
2023-03-22T09:54:47.569Z,10.50
2023-03-22T09:57:24.583Z,11.05
2023-03-22T10:02:57.402Z,10.23
2023-03-22T10:05:33.972Z,13.32
2023-03-22T10:08:26.524Z,13.27
2023-03-22T10:10:53.828Z,13.20
2023-03-22T10:13:32.650Z,14.15
2023-03-22T10:16:06.788Z,14.43
2023-03-22T10:18:38.087Z,15.90
2023-03-22T10:21:08.242Z,18.08
2023-03-22T10:24:23.140Z,16.33
2023-03-22T10:26:51.616Z,14.07
2023-03-22T10:29:40.109Z,11.02
2023-03-22T10:32:19.418Z,11.00
2023-03-22T10:34:47.580Z,12.23
2023-03-22T10:37:22.407Z,12.52
2023-03-22T10:39:53.976Z,12.98
2023-03-22T10:42:27.171Z,13.43
2023-03-22T10:44:58.918Z,14.90
2023-03-22T10:47:40.901Z,17.02
2023-03-22T10:50:19.763Z,20.17
2023-03-22T10:52:57.542Z,19.55
2023-03-22T10:55:25.668Z,16.35
2023-03-22T10:58:12.263Z,13.95
2023-03-22T11:00:44.780Z,15.53
2023-03-22T11:03:37.731Z,14.18
2023-03-22T11:06:07.690Z,13.20
2023-03-22T11:08:51.618Z,12.77
2023-03-22T11:11:53.654Z,12.20
2023-03-22T11:14:35.817Z,10.55
2023-03-22T11:17:20.357Z,10.50
2023-03-22T11:19:54.223Z,10.88
2023-03-22T11:22:27.214Z,11.23
2023-03-22T11:24:56.605Z,10.43
2023-03-22T11:27:30.118Z,9.73
2023-03-22T11:30:20.502Z,14.13
2023-03-22T11:32:48.518Z,11.57
2023-03-22T11:35:22.596Z,10.52
2023-03-22T11:37:54.498Z,11.30
2023-03-22T11:40:28.783Z,10.18
2023-03-22T11:43:03.481Z,9.55
2023-03-22T11:45:36.266Z,8.32
2023-03-22T11:48:07.689Z,9.02
2023-03-22T11:50:40.249Z,8.25
2023-03-22T11:53:14.935Z,9.55
2023-03-22T11:55:43.182Z,7.85
2023-03-22T11:58:28.989Z,9.35
2023-03-22T12:01:01.197Z,8.55
2023-03-22T12:03:37.544Z,8.85
2023-03-22T12:06:31.881Z,7.00
2023-03-22T12:09:12.851Z,7.80
2023-03-22T12:11:43.908Z,7.65
2023-03-22T12:14:26.143Z,7.15
2023-03-22T12:16:59.766Z,7.95
2023-03-22T12:19:38.667Z,7.55
2023-03-22T12:22:14.973Z,8.45
2023-03-22T12:24:42.998Z,7.88
2023-03-22T12:27:31.333Z,7.35
2023-03-22T12:30:03.239Z,6.53
2023-03-22T12:32:38.855Z,6.95
2023-03-22T12:35:17.691Z,6.18
2023-03-22T12:37:52.756Z,5.72
2023-03-22T12:40:32.403Z,6.07
2023-03-22T12:43:08.433Z,6.30
2023-03-22T12:45:41.044Z,6.63
2023-03-22T12:48:22.250Z,6.07
2023-03-22T12:51:02.368Z,5.85
2023-03-22T12:53:45.064Z,6.20
2023-03-22T12:56:16.115Z,7.30
2023-03-22T12:58:48.720Z,5.25
2023-03-22T13:01:44.351Z,5.97
2023-03-22T13:04:33.149Z,5.97
2023-03-22T13:07:30.702Z,4.60
2023-03-22T13:10:00.374Z,5.07
2023-03-22T13:12:33.018Z,6.28
2023-03-22T13:15:02.788Z,6.80
2023-03-22T13:17:29.768Z,5.90
2023-03-22T13:20:25.872Z,7.45
2023-03-22T13:22:52.887Z,5.97
2023-03-22T13:25:19.919Z,6.13
2023-03-22T13:27:59.623Z,5.22
2023-03-22T13:30:34.955Z,5.80
2023-03-22T13:33:10.677Z,6.80
2023-03-22T13:35:51.320Z,6.50
2023-03-22T13:38:24.609Z,6.40
2023-03-22T13:41:03.562Z,5.57
2023-03-22T13:43:50.477Z,7.57
2023-03-22T13:46:20.800Z,6.50
2023-03-22T13:48:48.399Z,5.20
2023-03-22T13:51:32.164Z,6.75
2023-03-22T13:54:00.605Z,5.25
2023-03-22T13:56:54.336Z,4.90
2023-03-22T13:59:27.571Z,4.03
2023-03-22T14:02:18.800Z,3.90
2023-03-22T14:05:04.368Z,4.60
2023-03-22T14:07:44.590Z,4.40
2023-03-22T14:10:14.196Z,4.80
2023-03-22T14:13:06.437Z,5.03
2023-03-22T14:15:40.568Z,5.85
2023-03-22T14:18:32.788Z,5.10
2023-03-22T14:21:23.882Z,4.85
2023-03-22T14:54:15.995Z,6.00
2023-03-22T14:56:44.672Z,5.35
2023-03-22T14:59:18.062Z,5.47
2023-03-22T15:02:02.233Z,5.75
2023-03-22T15:04:29.570Z,7.57
2023-03-22T15:06:59.646Z,10.00
2023-03-22T15:09:27.543Z,8.55
2023-03-22T15:11:59.560Z,8.98
2023-03-22T15:14:27.636Z,8.90
2023-03-22T15:16:55.098Z,5.18
2023-03-22T15:19:23.495Z,10.30
2023-03-22T15:22:13.685Z,5.38
2023-03-22T15:24:50.309Z,6.57
2023-03-22T15:27:18.847Z,7.97
2023-03-22T15:29:46.152Z,8.20
2023-03-22T15:32:19.803Z,6.55
2023-03-22T15:34:48.695Z,5.57
2023-03-22T15:37:35.997Z,7.18
2023-03-22T15:40:05.437Z,7.15
2023-03-22T15:42:37.675Z,7.38
2023-03-22T15:45:22.871Z,7.05
2023-03-22T15:47:53.967Z,7.78
2023-03-22T15:50:23.158Z,7.68
2023-03-22T15:52:58.255Z,7.53
2023-03-22T15:55:36.704Z,7.03
2023-03-22T15:58:08.804Z,6.55
2023-03-22T16:00:38.873Z,7.50
2023-03-22T16:03:08.659Z,7.65
2023-03-22T16:05:38.784Z,5.55
2023-03-22T16:08:07.662Z,6.05
2023-03-22T16:10:37.494Z,5.53
2023-03-22T16:13:30.880Z,8.75
2023-03-22T16:16:01.459Z,6.65
2023-03-22T16:18:29.644Z,9.65
2023-03-22T16:20:57.323Z,20.15
2023-03-22T16:23:26.571Z,13.27
2023-03-22T16:25:54.764Z,8.80
2023-03-22T16:28:23.281Z,12.43
2023-03-22T16:30:51.584Z,14.55
2023-03-22T16:33:19.701Z,12.15
2023-03-22T16:35:48.481Z,14.43
2023-03-22T16:38:17.390Z,13.25
2023-03-22T16:40:52.514Z,14.50
2023-03-22T16:43:20.287Z,15.15
2023-03-22T16:45:49.038Z,10.55
2023-03-22T16:48:16.486Z,7.40
2023-03-22T16:50:45.834Z,7.63
2023-03-22T16:53:17.089Z,9.38
2023-03-22T16:55:46.876Z,9.93
2023-03-22T16:58:14.805Z,12.45
2023-03-22T17:00:42.606Z,14.07
2023-03-22T17:03:13.223Z,11.18
2023-03-22T17:05:40.334Z,10.32
2023-03-22T17:08:17.661Z,7.10
2023-03-22T17:10:46.156Z,19.80
2023-03-22T17:13:17.608Z,16.70
2023-03-22T17:15:47.987Z,16.42
2023-03-22T17:18:16.328Z,14.80
2023-03-22T17:20:45.044Z,18.75
2023-03-22T17:23:13.592Z,24.90
2023-03-22T17:25:43.863Z,22.77
2023-03-22T17:28:13.024Z,23.75
2023-03-22T17:30:40.714Z,23.88
2023-03-22T17:33:09.799Z,24.35
2023-03-22T17:35:37.330Z,29.17
2023-03-22T17:38:05.003Z,31.55
2023-03-22T17:40:38.342Z,29.77
2023-03-22T17:43:15.741Z,25.25
2023-03-22T17:46:24.752Z,24.20
2023-03-22T17:48:29.979Z,33.25
2023-03-22T17:50:57.159Z,38.60
2023-03-22T17:54:04.908Z,40.10
2023-03-22T17:58:41.979Z,39.03
2023-03-22T18:01:13.420Z,38.17
2023-03-22T18:03:40.667Z,36.25
2023-03-22T18:06:08.037Z,34.17
2023-03-22T18:08:35.294Z,36.08
2023-03-22T18:11:02.492Z,36.03
2023-03-22T18:13:29.699Z,28.98
2023-03-22T18:15:57.104Z,38.63
2023-03-22T18:18:24.278Z,33.20
2023-03-22T18:20:57.409Z,34.70
2023-03-22T18:23:25.515Z,35.38
2023-03-22T18:25:58.904Z,35.72
2023-03-22T18:28:30.568Z,33.53
2023-03-22T18:30:58.326Z,31.38
2023-03-22T18:33:26.417Z,36.88
2023-03-22T18:35:55.856Z,30.83
2023-03-22T18:39:02.098Z,30.95
2023-03-22T18:43:47.548Z,30.40
2023-03-22T18:46:19.331Z,30.65
2023-03-22T18:48:46.790Z,32.30
2023-03-22T18:51:14.042Z,24.27
2023-03-22T18:53:41.221Z,26.23
2023-03-22T18:56:09.853Z,24.77
2023-03-22T18:58:37.134Z,26.77
2023-03-22T19:01:05.792Z,24.90
2023-03-22T19:03:35.812Z,24.30
2023-03-22T19:06:21.872Z,24.58
2023-03-22T19:08:50.810Z,24.08
2023-03-22T19:11:18.243Z,25.08
2023-03-22T19:14:23.920Z,24.98
2023-03-22T19:16:32.925Z,25.35
2023-03-22T19:19:00.064Z,21.33
2023-03-22T19:21:32.308Z,21.83
2023-03-22T19:23:59.888Z,21.45
2023-03-22T19:26:27.961Z,20.15
2023-03-22T19:28:59.217Z,20.70
2023-03-22T19:31:28.159Z,20.67
2023-03-22T19:33:56.571Z,21.15
2023-03-22T19:36:23.955Z,19.65
2023-03-22T19:38:51.121Z,20.58
2023-03-22T19:41:46.410Z,19.08
2023-03-22T19:44:06.161Z,23.20
2023-03-22T19:46:33.535Z,23.92
2023-03-22T19:49:02.447Z,25.00
2023-03-22T19:51:30.350Z,24.80
2023-03-22T19:54:25.785Z,24.25
2023-03-22T19:56:47.866Z,22.50
2023-03-22T19:59:16.972Z,26.88
2023-03-22T20:01:45.142Z,27.30
2023-03-22T20:04:12.617Z,20.80
2023-03-22T20:06:40.010Z,56.92
2023-03-22T20:09:07.464Z,60.80
2023-03-22T20:14:07.083Z,47.63
2023-03-22T20:16:37.377Z,30.15
2023-03-22T20:19:06.560Z,32.00
2023-03-22T20:21:34.579Z,40.33
2023-03-22T20:24:02.884Z,28.48
2023-03-22T20:26:31.055Z,31.35
2023-03-22T20:28:58.662Z,36.35
2023-03-22T20:31:25.936Z,39.90
2023-03-22T20:33:53.510Z,32.92
2023-03-22T20:36:21.682Z,21.27
2023-03-22T20:38:50.194Z,32.22
2023-03-22T20:41:17.930Z,73.85
2023-03-22T20:43:47.592Z,98.50
2023-03-22T20:46:15.784Z,35.60
2023-03-22T20:48:44.460Z,37.65
2023-03-22T20:51:12.465Z,29.80
2023-03-22T20:53:40.500Z,24.92
2023-03-22T20:56:09.786Z,20.42
2023-03-22T20:58:38.309Z,17.52
2023-03-22T21:01:10.142Z,15.35
2023-03-22T21:03:39.052Z,19.35
2023-03-22T21:06:10.768Z,19.90
2023-03-22T21:08:41.566Z,19.00
2023-03-22T21:11:11.977Z,14.13
2023-03-22T21:13:40.637Z,9.88
2023-03-22T21:16:13.200Z,12.10
2023-03-22T21:18:40.957Z,13.85
2023-03-22T21:21:09.649Z,24.92
2023-03-22T21:23:37.434Z,26.55
2023-03-22T21:26:05.810Z,24.58
2023-03-22T21:28:34.056Z,21.30
2023-03-22T21:31:15.045Z,18.75
2023-03-22T21:33:42.651Z,24.10
2023-03-22T21:36:13.920Z,28.30
2023-03-22T21:38:43.162Z,23.52
2023-03-22T21:41:10.606Z,23.05
2023-03-22T21:43:38.563Z,24.17
2023-03-22T21:46:10.836Z,19.98
2023-03-22T21:48:44.562Z,24.17
2023-03-22T21:51:13.172Z,25.33
2023-03-22T21:53:40.964Z,25.58
2023-03-22T21:56:09.481Z,28.88
2023-03-22T21:58:39.098Z,38.03
2023-03-22T22:01:06.799Z,26.83
2023-03-22T22:03:33.918Z,22.45
2023-03-22T22:06:01.264Z,22.00
2023-03-22T22:08:28.589Z,18.10
2023-03-22T22:11:00.812Z,16.90
2023-03-22T22:13:28.926Z,16.17
2023-03-22T22:16:02.656Z,16.35
2023-03-22T22:18:31.699Z,15.45
2023-03-22T22:21:01.667Z,14.38
2023-03-22T22:23:31.038Z,15.25
2023-03-22T22:25:59.776Z,14.32
2023-03-22T22:28:28.439Z,16.10
2023-03-22T22:30:55.952Z,18.30
2023-03-22T22:33:25.828Z,16.85
2023-03-22T22:35:53.359Z,17.52
2023-03-22T22:38:20.513Z,21.10
2023-03-22T22:40:48.482Z,28.83
2023-03-22T22:43:15.874Z,19.88
2023-03-22T22:45:43.317Z,17.27
2023-03-22T22:48:12.077Z,13.88
2023-03-22T22:50:39.230Z,13.40
2023-03-22T22:53:06.802Z,13.32
2023-03-22T22:55:34.227Z,13.98
2023-03-22T22:58:01.990Z,13.82
2023-03-22T23:00:31.711Z,16.08
2023-03-22T23:03:00.914Z,13.23
2023-03-22T23:05:29.238Z,14.95
2023-03-22T23:07:56.767Z,12.23
2023-03-22T23:10:24.055Z,13.73
2023-03-22T23:12:51.645Z,12.45
2023-03-22T23:15:27.130Z,12.55
2023-03-22T23:18:00.188Z,12.52
2023-03-22T23:20:30.392Z,14.38
2023-03-22T23:22:57.448Z,14.85
2023-03-22T23:25:25.711Z,14.00
2023-03-22T23:27:57.538Z,15.65
2023-03-22T23:30:24.643Z,16.23
2023-03-22T23:32:58.321Z,16.55
2023-03-22T23:35:29.790Z,17.65
2023-03-22T23:38:00.747Z,18.45
2023-03-22T23:40:29.503Z,17.83
2023-03-22T23:42:56.680Z,17.58
2023-03-22T23:45:23.821Z,17.50
2023-03-22T23:47:51.162Z,16.17
2023-03-22T23:50:18.482Z,14.48
2023-03-22T23:52:46.226Z,16.30
2023-03-22T23:55:13.943Z,15.10
2023-03-22T23:57:41.422Z,21.15
